createdAt,value
2023-04-14T00:01:00.374Z,100965.78
2023-04-14T00:03:27.370Z,100964.13
2023-04-14T00:05:54.452Z,100963.56
2023-04-14T00:08:21.214Z,100965.88
2023-04-14T00:10:47.980Z,100951.25
2023-04-14T00:13:14.895Z,100959.16
2023-04-14T00:15:42.509Z,100956.97
2023-04-14T00:18:09.321Z,100947.97
2023-04-14T00:20:36.177Z,100912.88
2023-04-14T00:23:03.046Z,100954.75
2023-04-14T00:25:29.776Z,100950.25
2023-04-14T00:27:56.611Z,100852.00
2023-04-14T00:30:23.353Z,100942.66
2023-04-14T00:32:50.129Z,100912.50
2023-04-14T00:35:16.954Z,100926.69
2023-04-14T00:37:43.779Z,100930.88
2023-04-14T00:40:13.322Z,100901.63
2023-04-14T00:42:44.464Z,100925.47
2023-04-14T00:45:11.981Z,100910.94
2023-04-14T00:47:39.544Z,100924.56
2023-04-14T00:50:06.975Z,100888.13
2023-04-14T00:52:33.706Z,100925.09
2023-04-14T00:55:00.981Z,100938.34
2023-04-14T00:57:27.884Z,100957.91
2023-04-14T00:59:54.782Z,100953.94
2023-04-14T01:02:22.311Z,100940.47
2023-04-14T01:04:54.186Z,100887.53
2023-04-14T01:07:21.791Z,100912.47
2023-04-14T01:09:48.545Z,100943.97
2023-04-14T01:12:28.444Z,100891.88
2023-04-14T01:15:20.748Z,100928.91
2023-04-14T01:18:11.420Z,100921.00
2023-04-14T01:20:39.647Z,100893.91
2023-04-14T01:23:13.701Z,100912.13
2023-04-14T01:25:49.519Z,100928.53
2023-04-14T01:28:22.554Z,100922.91
2023-04-14T01:31:26.602Z,100922.59
2023-04-14T01:34:20.932Z,100910.25
2023-04-14T01:37:15.214Z,100900.53
2023-04-14T01:39:43.091Z,100869.06
2023-04-14T01:42:11.923Z,100865.94
2023-04-14T01:44:39.515Z,100901.97
2023-04-14T01:47:08.527Z,100853.03
2023-04-14T01:49:36.649Z,100900.41
2023-04-14T01:52:04.223Z,100885.03
2023-04-14T01:54:32.166Z,100913.16
2023-04-14T01:56:58.902Z,100894.00
2023-04-14T01:59:25.816Z,100862.44
2023-04-14T02:01:52.786Z,100894.84
2023-04-14T02:04:20.747Z,100917.97
2023-04-14T02:06:47.609Z,100929.69
2023-04-14T02:09:14.696Z,100922.22
2023-04-14T02:11:42.470Z,100895.66
2023-04-14T02:14:09.517Z,100921.00
2023-04-14T02:16:36.395Z,100912.84
2023-04-14T02:19:04.196Z,100838.41
2023-04-14T02:21:31.283Z,100899.72
2023-04-14T02:23:58.075Z,100874.53
2023-04-14T02:26:26.715Z,100869.50
2023-04-14T02:28:58.200Z,100836.84
2023-04-14T02:31:26.047Z,100861.00
2023-04-14T02:33:55.050Z,100857.66
2023-04-14T02:36:24.509Z,100861.63
2023-04-14T02:39:18.294Z,100867.53
2023-04-14T02:41:45.850Z,100852.72
2023-04-14T02:44:28.797Z,100860.41
2023-04-14T02:47:07.012Z,100868.13
2023-04-14T02:49:36.469Z,100829.44
2023-04-14T02:52:06.740Z,100863.75
2023-04-14T02:54:38.035Z,100855.06
2023-04-14T02:57:04.776Z,100859.00
2023-04-14T02:59:32.416Z,100861.44
2023-04-14T03:02:06.498Z,100799.81
2023-04-14T03:04:34.681Z,100863.13
2023-04-14T03:07:01.762Z,100847.38
2023-04-14T03:09:29.004Z,100852.72
2023-04-14T03:11:55.773Z,100854.38
2023-04-14T03:14:23.232Z,100845.63
2023-04-14T03:16:53.528Z,100841.97
2023-04-14T03:19:23.789Z,100762.25
2023-04-14T03:21:51.238Z,100837.13
2023-04-14T03:24:30.887Z,100841.91
2023-04-14T03:26:58.760Z,100843.56
2023-04-14T03:29:34.501Z,100851.19
2023-04-14T03:32:02.246Z,100842.81
2023-04-14T03:34:29.882Z,100816.31
2023-04-14T03:36:56.725Z,100819.03
2023-04-14T03:39:28.484Z,100807.22
2023-04-14T03:41:56.182Z,100822.28
2023-04-14T03:44:23.171Z,100818.41
2023-04-14T03:46:50.097Z,100839.22
2023-04-14T03:49:17.494Z,100832.75
2023-04-14T03:51:44.544Z,100813.56
2023-04-14T03:54:11.874Z,100827.97
2023-04-14T03:56:41.312Z,100831.31
2023-04-14T03:59:11.602Z,100796.28
2023-04-14T04:01:39.117Z,100813.06
2023-04-14T04:04:06.318Z,100824.88
2023-04-14T04:06:33.836Z,100822.56
2023-04-14T04:09:01.398Z,100824.25
2023-04-14T04:11:29.201Z,100814.66
2023-04-14T04:13:56.162Z,100817.97
2023-04-14T04:16:23.119Z,100798.13
2023-04-14T04:18:49.996Z,100758.44
2023-04-14T04:21:18.198Z,100826.44
2023-04-14T04:23:52.796Z,100831.75
2023-04-14T04:26:19.669Z,100795.91
2023-04-14T04:28:46.920Z,100853.69
2023-04-14T04:31:13.761Z,100848.03
2023-04-14T04:33:40.539Z,100831.53
2023-04-14T04:36:07.579Z,100844.91
2023-04-14T04:38:34.410Z,100768.16
2023-04-14T04:41:01.248Z,100767.09
2023-04-14T04:43:28.178Z,100843.47
2023-04-14T04:46:25.898Z,100831.06
2023-04-14T04:48:53.215Z,100831.38
2023-04-14T04:51:19.965Z,100780.41
2023-04-14T04:53:46.854Z,100821.78
2023-04-14T04:56:13.784Z,100775.00
2023-04-14T04:58:40.728Z,100806.88
2023-04-14T05:01:11.239Z,100786.41
2023-04-14T05:03:38.379Z,100700.66
2023-04-14T05:06:06.923Z,100787.03
2023-04-14T05:08:33.706Z,100756.19
2023-04-14T05:11:01.493Z,100784.84
2023-04-14T05:13:28.241Z,100775.94
2023-04-14T05:16:08.673Z,100787.03
2023-04-14T05:18:35.721Z,100783.16
2023-04-14T05:21:09.715Z,100783.16
2023-04-14T05:23:37.594Z,100767.59
2023-04-14T05:26:26.974Z,100798.28
2023-04-14T05:28:51.921Z,100762.03
2023-04-14T05:31:18.839Z,100759.78
2023-04-14T05:33:45.837Z,100799.97
2023-04-14T05:36:12.990Z,100810.09
2023-04-14T05:38:43.140Z,100810.91
2023-04-14T05:41:10.325Z,100771.69
2023-04-14T05:43:37.471Z,100796.53
2023-04-14T05:46:04.935Z,100784.13
2023-04-14T05:48:33.574Z,100768.13
2023-04-14T05:51:00.764Z,100784.72
2023-04-14T05:53:28.001Z,100806.66
2023-04-14T05:55:54.830Z,100800.47
2023-04-14T05:58:21.785Z,100797.38
2023-04-14T06:00:48.607Z,100797.06
2023-04-14T06:03:16.909Z,100807.19
2023-04-14T06:05:44.335Z,100793.28
2023-04-14T06:08:11.306Z,100807.19
2023-04-14T06:10:38.099Z,100813.59
2023-04-14T06:13:04.935Z,100828.63
2023-04-14T06:15:31.935Z,100828.03
2023-04-14T06:17:58.964Z,100829.78
2023-04-14T06:20:25.982Z,100835.50
2023-04-14T06:22:52.786Z,100840.50
2023-04-14T06:25:19.908Z,100830.94
2023-04-14T06:27:46.628Z,100814.91
2023-04-14T06:30:15.493Z,100842.59
2023-04-14T06:32:42.531Z,100831.28
2023-04-14T06:35:16.468Z,100835.84
2023-04-14T06:37:50.734Z,100845.28
2023-04-14T06:40:17.524Z,100844.97
2023-04-14T06:42:44.318Z,100858.25
2023-04-14T06:45:11.613Z,100848.28
2023-04-14T06:47:38.570Z,100864.09
2023-04-14T06:50:05.816Z,100857.38
2023-04-14T06:52:32.805Z,100851.53
2023-04-14T06:54:59.738Z,100864.75
2023-04-14T06:57:26.658Z,100859.44
2023-04-14T06:59:53.581Z,100866.97
2023-04-14T07:02:20.520Z,100857.38
2023-04-14T07:04:47.427Z,100864.38
2023-04-14T07:07:14.952Z,100862.41
2023-04-14T07:09:44.623Z,100862.41
2023-04-14T07:12:14.863Z,100864.94
2023-04-14T07:14:41.795Z,100860.75
2023-04-14T07:17:09.102Z,100857.94
2023-04-14T07:19:35.855Z,100881.47
2023-04-14T07:22:03.873Z,100878.66
2023-04-14T07:24:30.598Z,100885.72
2023-04-14T07:26:57.333Z,100877.00
2023-04-14T07:29:24.283Z,100793.78
2023-04-14T07:31:51.110Z,100871.91
2023-04-14T07:34:18.526Z,100870.84
2023-04-14T07:36:45.949Z,100853.50
2023-04-14T07:39:12.820Z,100821.19
2023-04-14T07:41:41.438Z,100867.78
2023-04-14T07:44:08.296Z,100879.88
2023-04-14T07:46:35.093Z,100847.53
2023-04-14T07:49:02.466Z,100870.09
2023-04-14T07:51:29.331Z,100876.81
2023-04-14T07:53:56.257Z,100871.50
2023-04-14T07:56:23.188Z,100881.63
2023-04-14T07:58:50.143Z,100889.75
2023-04-14T08:01:17.212Z,100894.25
2023-04-14T08:03:45.551Z,100888.91
2023-04-14T08:06:12.992Z,100892.03
2023-04-14T08:08:40.321Z,100897.88
2023-04-14T08:11:07.188Z,100894.25
2023-04-14T08:13:34.171Z,100870.34
2023-04-14T08:16:01.074Z,100841.47
2023-04-14T08:18:28.487Z,100877.53
2023-04-14T08:20:55.637Z,100869.97
2023-04-14T08:23:23.022Z,100885.63
2023-04-14T08:25:49.898Z,100887.31
2023-04-14T08:28:17.437Z,100887.91
2023-04-14T08:30:44.245Z,100887.38
2023-04-14T08:33:11.297Z,100868.97
2023-04-14T08:35:42.442Z,100868.28
2023-04-14T08:38:11.997Z,100893.78
2023-04-14T08:40:40.321Z,100891.25
2023-04-14T08:43:07.399Z,100902.13
2023-04-14T08:45:34.627Z,100869.22
2023-04-14T08:48:02.848Z,100892.97
2023-04-14T08:50:37.959Z,100912.38
2023-04-14T08:53:06.638Z,100891.13
2023-04-14T08:55:33.811Z,100912.41
2023-04-14T08:58:01.515Z,100893.94
2023-04-14T09:00:28.387Z,100904.69
2023-04-14T09:02:55.625Z,100876.28
2023-04-14T09:05:22.575Z,100913.97
2023-04-14T09:07:49.934Z,100882.44
2023-04-14T09:10:16.813Z,100909.00
2023-04-14T09:12:43.988Z,100930.00
2023-04-14T09:15:12.124Z,100926.66
2023-04-14T09:17:38.882Z,100928.69
2023-04-14T09:20:38.524Z,100934.50
2023-04-14T09:22:53.421Z,100924.38
2023-04-14T09:25:21.143Z,100904.34
2023-04-14T09:27:49.399Z,100901.78
2023-04-14T09:30:17.994Z,100904.38
2023-04-14T09:32:47.958Z,100936.81
2023-04-14T09:35:14.898Z,100929.25
2023-04-14T09:37:45.393Z,100902.69
2023-04-14T09:40:28.032Z,100889.78
2023-04-14T09:42:56.510Z,100918.03
2023-04-14T09:45:23.342Z,100930.13
2023-04-14T09:48:06.350Z,100944.00
2023-04-14T09:50:33.757Z,100945.69
2023-04-14T09:53:00.493Z,100957.75
2023-04-14T09:55:27.578Z,100913.09
2023-04-14T09:57:54.373Z,100963.03
2023-04-14T10:00:22.471Z,100959.06
2023-04-14T10:02:56.037Z,100969.66
2023-04-14T10:05:27.329Z,100958.56
2023-04-14T10:07:54.464Z,100948.56
2023-04-14T10:10:21.484Z,100903.31
2023-04-14T10:12:48.287Z,100932.31
2023-04-14T10:15:15.733Z,100972.75
2023-04-14T10:17:42.994Z,100944.50
2023-04-14T10:20:10.502Z,100972.09
2023-04-14T10:22:39.082Z,100975.06
2023-04-14T10:25:08.230Z,100980.31
2023-04-14T10:27:35.170Z,100990.97
2023-04-14T10:30:02.337Z,100977.50
2023-04-14T10:32:32.008Z,100983.53
2023-04-14T10:35:05.661Z,100979.44
2023-04-14T10:37:35.350Z,100964.34
2023-04-14T10:40:04.226Z,100973.19
2023-04-14T10:42:52.282Z,100970.94
2023-04-14T10:45:19.076Z,100984.34
2023-04-14T10:47:45.926Z,100965.16
2023-04-14T10:50:14.276Z,100974.56
2023-04-14T10:52:58.927Z,100953.91
2023-04-14T10:55:28.536Z,100965.63
2023-04-14T10:58:06.440Z,100934.88
2023-04-14T11:00:37.798Z,100959.66
2023-04-14T11:03:08.015Z,100925.91
2023-04-14T11:05:35.783Z,100951.44
2023-04-14T11:08:15.822Z,100952.94
2023-04-14T11:10:48.269Z,100904.56
2023-04-14T11:13:17.567Z,100927.34
2023-04-14T11:15:51.952Z,100939.09
2023-04-14T11:18:21.642Z,100949.94
2023-04-14T11:20:49.151Z,100946.25
2023-04-14T11:23:19.344Z,100921.91
2023-04-14T11:25:46.301Z,100934.53
2023-04-14T11:28:13.246Z,100960.72
2023-04-14T11:30:40.892Z,100951.75
2023-04-14T11:33:07.929Z,100960.34
2023-04-14T11:35:34.848Z,100961.16
2023-04-14T11:38:01.968Z,100922.75
2023-04-14T11:40:29.010Z,100965.59
2023-04-14T11:42:59.270Z,100922.16
2023-04-14T11:45:29.737Z,100946.00
2023-04-14T11:48:04.463Z,100934.19
2023-04-14T11:50:33.103Z,100952.59
2023-04-14T11:53:00.461Z,100919.72
2023-04-14T11:55:27.656Z,100953.97
2023-04-14T11:57:58.395Z,100943.31
2023-04-14T12:00:25.463Z,100953.44
2023-04-14T12:02:52.581Z,100942.91
2023-04-14T12:05:21.761Z,100946.97
2023-04-14T12:07:49.556Z,100937.53
2023-04-14T12:10:16.525Z,100936.94
2023-04-14T12:12:43.603Z,100946.88
2023-04-14T12:15:10.870Z,100954.19
2023-04-14T12:17:38.693Z,100942.06
2023-04-14T12:20:06.096Z,100931.41
2023-04-14T12:22:32.862Z,100949.56
2023-04-14T12:24:59.690Z,100941.94
2023-04-14T12:27:27.744Z,100946.13
2023-04-14T12:29:54.653Z,100927.84
2023-04-14T12:32:22.827Z,100947.69
2023-04-14T12:35:01.483Z,100950.63
2023-04-14T12:37:28.448Z,100941.03
2023-04-14T12:40:00.626Z,100922.13
2023-04-14T12:42:28.260Z,100945.38
2023-04-14T12:44:56.293Z,100933.38
2023-04-14T12:47:32.523Z,100943.06
2023-04-14T12:50:00.378Z,100943.88
2023-04-14T12:52:40.269Z,100932.88
2023-04-14T12:55:07.958Z,100944.84
2023-04-14T12:57:35.202Z,100921.66
2023-04-14T13:00:02.302Z,100929.28
2023-04-14T13:02:30.289Z,100871.66
2023-04-14T13:04:57.375Z,100912.19
2023-04-14T13:07:24.238Z,100935.69
2023-04-14T13:09:52.028Z,100927.94
2023-04-14T13:12:18.878Z,100938.75
2023-04-14T13:14:46.919Z,100946.00
2023-04-14T13:17:13.739Z,100927.78
2023-04-14T13:19:41.596Z,100936.38
2023-04-14T13:22:08.550Z,100939.09
2023-04-14T13:24:36.321Z,100941.31
2023-04-14T13:27:03.250Z,100882.81
2023-04-14T13:29:32.206Z,100928.81
2023-04-14T13:31:59.193Z,100933.69
2023-04-14T13:34:27.674Z,100904.22
2023-04-14T13:36:55.194Z,100867.22
2023-04-14T13:39:22.841Z,100935.44
2023-04-14T13:41:49.791Z,100931.03
2023-04-14T13:44:17.272Z,100930.53
2023-04-14T13:46:45.721Z,100931.03
2023-04-14T13:49:12.752Z,100839.75
2023-04-14T13:51:40.005Z,100894.59
2023-04-14T13:54:07.105Z,100928.53
2023-04-14T13:56:33.902Z,100925.91
2023-04-14T13:59:02.343Z,100935.47
2023-04-14T14:01:29.302Z,100931.94
2023-04-14T14:03:56.570Z,100938.59
2023-04-14T14:06:23.666Z,100940.88
2023-04-14T14:09:05.764Z,100936.78
2023-04-14T14:11:33.474Z,100898.19
2023-04-14T14:14:00.626Z,100931.22
2023-04-14T14:18:57.471Z,100942.16
2023-04-14T14:21:24.243Z,100938.94
2023-04-14T14:23:51.116Z,100914.59
2023-04-14T14:26:17.961Z,100938.84
2023-04-14T14:28:45.612Z,100906.97
2023-04-14T14:31:12.388Z,100934.75
2023-04-14T14:33:39.437Z,100857.09
2023-04-14T14:36:06.371Z,100928.56
2023-04-14T14:38:33.183Z,100929.06
2023-04-14T14:41:00.157Z,100924.81
2023-04-14T14:43:27.141Z,100901.06
2023-04-14T14:45:54.021Z,100887.13
2023-04-14T14:48:21.175Z,100918.41
2023-04-14T14:50:47.886Z,100919.19
2023-04-14T14:53:14.582Z,100923.97
2023-04-14T14:55:41.619Z,100917.28
2023-04-14T14:58:08.565Z,100887.69
2023-04-14T15:00:35.907Z,100912.28
2023-04-14T15:03:02.895Z,100906.09
2023-04-14T15:05:30.264Z,100915.91
2023-04-14T15:07:57.017Z,100914.47
2023-04-14T15:10:25.730Z,100901.00
2023-04-14T15:12:53.656Z,100906.53
2023-04-14T15:15:20.422Z,100872.56
2023-04-14T15:17:47.413Z,100906.53
2023-04-14T15:20:14.528Z,100913.31
2023-04-14T15:22:41.334Z,100897.44
2023-04-14T15:25:09.352Z,100897.97
2023-04-14T15:27:36.569Z,100910.34
2023-04-14T15:30:03.628Z,100896.72
2023-04-14T15:32:30.539Z,100873.09
2023-04-14T15:34:57.593Z,100863.88
2023-04-14T15:37:25.396Z,100898.94
2023-04-14T15:39:52.631Z,100898.31
2023-04-14T15:42:19.568Z,100853.16
2023-04-14T15:44:46.471Z,100874.97
2023-04-14T15:47:13.396Z,100909.00
2023-04-14T15:49:40.123Z,100829.81
2023-04-14T15:52:06.926Z,100905.59
2023-04-14T15:54:34.286Z,100911.72
2023-04-14T15:57:02.355Z,100901.63
2023-04-14T15:59:29.363Z,100898.47
2023-04-14T16:01:56.444Z,100898.19
2023-04-14T16:04:24.175Z,100909.47
2023-04-14T16:06:51.446Z,100906.09
2023-04-14T16:09:18.398Z,100884.31
2023-04-14T16:11:45.320Z,100912.88
2023-04-14T16:14:13.229Z,100915.16
2023-04-14T16:16:40.312Z,100879.69
2023-04-14T16:19:07.085Z,100886.19
2023-04-14T16:21:33.923Z,100880.84
2023-04-14T16:24:01.309Z,100910.09
2023-04-14T16:26:28.963Z,100902.78
2023-04-14T16:28:55.691Z,100914.03
2023-04-14T16:31:23.661Z,100917.34
2023-04-14T16:33:50.514Z,100920.72
2023-04-14T16:36:17.474Z,100874.38
2023-04-14T16:38:44.343Z,100905.63
2023-04-14T16:41:11.651Z,100912.91
2023-04-14T16:43:38.910Z,100917.47
2023-04-14T16:46:07.215Z,100920.31
2023-04-14T16:48:35.250Z,100911.03
2023-04-14T16:51:09.388Z,100898.50
2023-04-14T16:53:37.117Z,100888.44
2023-04-14T16:56:07.688Z,100916.88
2023-04-14T16:58:35.276Z,100896.78
2023-04-14T17:01:02.392Z,100918.09
2023-04-14T17:03:29.348Z,100920.41
2023-04-14T17:05:56.721Z,100923.94
2023-04-14T17:08:23.616Z,100919.16
2023-04-14T17:10:50.763Z,100916.88
2023-04-14T17:13:18.076Z,100925.66
2023-04-14T17:15:44.898Z,100924.78
2023-04-14T17:18:12.742Z,100913.06
2023-04-14T17:20:41.180Z,100924.50
2023-04-14T17:23:09.094Z,100932.63
2023-04-14T17:25:39.213Z,100890.72
2023-04-14T17:28:06.329Z,100928.72
2023-04-14T17:30:35.174Z,100925.66
2023-04-14T17:33:05.604Z,100937.16
2023-04-14T17:35:33.335Z,100925.91
2023-04-14T17:38:01.000Z,100898.88
2023-04-14T17:40:28.475Z,100934.09
2023-04-14T17:42:55.749Z,100927.00
2023-04-14T17:45:25.773Z,100932.63
2023-04-14T17:47:53.779Z,100907.44
2023-04-14T17:50:25.703Z,100920.84
2023-04-14T17:52:52.486Z,100896.13
2023-04-14T17:55:19.382Z,100942.53
2023-04-14T17:57:46.804Z,100905.72
2023-04-14T18:00:14.872Z,100938.72
2023-04-14T18:02:41.907Z,100945.41
2023-04-14T18:05:09.427Z,100912.25
2023-04-14T18:07:38.833Z,100945.50
2023-04-14T18:10:06.670Z,100958.72
2023-04-14T18:12:33.574Z,100956.22
2023-04-14T18:15:00.458Z,100953.72
2023-04-14T18:17:27.564Z,100937.81
2023-04-14T18:19:56.701Z,100928.84
2023-04-14T18:22:23.774Z,100924.59
2023-04-14T18:24:51.074Z,100945.78
2023-04-14T18:29:48.183Z,100944.19
2023-04-14T18:32:15.563Z,100923.44
2023-04-14T18:34:43.271Z,100962.78
2023-04-14T18:37:10.517Z,100966.94
2023-04-14T18:39:37.905Z,100948.25
2023-04-14T18:42:05.529Z,100929.81
2023-04-14T18:44:32.838Z,100964.13
2023-04-14T18:46:59.719Z,100971.22
2023-04-14T18:49:26.610Z,100949.75
2023-04-14T18:51:53.864Z,100968.41
2023-04-14T18:54:22.007Z,100941.59
2023-04-14T18:56:49.392Z,100960.56
2023-04-14T18:59:16.244Z,100971.72
2023-04-14T19:01:43.124Z,100959.50
2023-04-14T19:04:10.072Z,100974.78
2023-04-14T19:06:37.272Z,100961.16
2023-04-14T19:09:04.675Z,100935.44
2023-04-14T19:11:36.215Z,100976.31
2023-04-14T19:14:06.009Z,100940.91
2023-04-14T19:16:33.188Z,100978.88
2023-04-14T19:19:00.474Z,100987.00
2023-04-14T19:21:27.440Z,100986.72
2023-04-14T19:23:56.679Z,100984.50
2023-04-14T19:26:24.393Z,100975.00
2023-04-14T19:28:53.041Z,100982.63
2023-04-14T19:31:21.593Z,100969.56
2023-04-14T19:33:49.310Z,100976.91
2023-04-14T19:36:17.674Z,100949.84
2023-04-14T19:38:44.451Z,100986.44
2023-04-14T19:41:11.731Z,100973.91
2023-04-14T19:43:38.981Z,100974.50
2023-04-14T19:46:07.308Z,100975.03
2023-04-14T19:48:35.368Z,100984.78
2023-04-14T19:51:02.289Z,100946.63
2023-04-14T19:53:29.263Z,100963.97
2023-04-14T19:55:57.353Z,100973.56
2023-04-14T19:58:27.813Z,100987.84
2023-04-14T20:00:57.373Z,101003.22
2023-04-14T20:03:24.813Z,101004.38
2023-04-14T20:05:56.914Z,100978.47
2023-04-14T20:08:24.486Z,100964.31
2023-04-14T20:10:52.807Z,100971.06
2023-04-14T20:13:23.251Z,100982.56
2023-04-14T20:15:51.042Z,100999.06
2023-04-14T20:18:20.999Z,101013.88
2023-04-14T20:20:48.792Z,101031.53
2023-04-14T20:23:15.950Z,101025.13
2023-04-14T20:25:45.784Z,101034.34
2023-04-14T20:28:12.589Z,101026.53
2023-04-14T20:30:40.387Z,100925.13
2023-04-14T20:33:08.207Z,101042.22
2023-04-14T20:35:36.106Z,101033.31
2023-04-14T20:38:03.065Z,101051.22
2023-04-14T20:40:30.310Z,101063.53
2023-04-14T20:42:57.719Z,101038.09
2023-04-14T20:45:25.060Z,101015.47
2023-04-14T20:47:51.975Z,101064.84
2023-04-14T20:50:18.990Z,100990.03
2023-04-14T20:52:45.863Z,101018.72
2023-04-14T20:55:13.596Z,101065.66
2023-04-14T20:57:41.675Z,101077.19
2023-04-14T21:00:12.401Z,101075.28
2023-04-14T21:02:39.359Z,101059.44
2023-04-14T21:05:06.592Z,101087.94
2023-04-14T21:07:35.514Z,101063.66
2023-04-14T21:10:04.226Z,101091.91
2023-04-14T21:12:35.334Z,101079.34
2023-04-14T21:15:48.600Z,101086.88
2023-04-14T21:17:52.062Z,101051.31
2023-04-14T21:20:19.010Z,101090.84
2023-04-14T21:22:45.746Z,101084.97
2023-04-14T21:25:12.500Z,101093.16
2023-04-14T21:27:39.362Z,101092.59
2023-04-14T21:30:06.791Z,101097.41
2023-04-14T21:32:34.291Z,101096.84
2023-04-14T21:35:01.311Z,101099.66
2023-04-14T21:37:28.067Z,101100.78
2023-04-14T21:39:55.512Z,101089.84
2023-04-14T21:42:22.491Z,101087.16
2023-04-14T21:44:49.383Z,101097.50
2023-04-14T21:47:16.468Z,101079.06
2023-04-14T21:49:43.302Z,101104.25
2023-04-14T21:52:10.292Z,101097.84
2023-04-14T21:54:41.549Z,101107.66
2023-04-14T21:57:08.294Z,101109.63
2023-04-14T21:59:35.067Z,101112.44
2023-04-14T22:02:01.980Z,101112.13
2023-04-14T22:04:36.285Z,101095.34
2023-04-14T22:07:05.497Z,101098.66
2023-04-14T22:09:33.505Z,101102.63
2023-04-14T22:12:00.493Z,101071.53
2023-04-14T22:14:27.872Z,101097.03
2023-04-14T22:16:55.178Z,101102.03
2023-04-14T22:19:21.993Z,101113.28
2023-04-14T22:21:48.934Z,101101.53
2023-04-14T22:24:15.687Z,101111.06
2023-04-14T22:26:42.401Z,101110.50
2023-04-14T22:29:11.596Z,101052.34
2023-04-14T22:31:38.529Z,101115.34
2023-04-14T22:34:05.394Z,101086.53
2023-04-14T22:36:32.483Z,101095.44
2023-04-14T22:38:59.369Z,101119.00
2023-04-14T22:41:26.378Z,101111.16
2023-04-14T22:43:53.226Z,101105.84
2023-04-14T22:46:20.239Z,101038.22
2023-04-14T22:48:47.210Z,101111.16
2023-04-14T22:51:14.185Z,101089.03
2023-04-14T22:53:41.344Z,101093.81
2023-04-14T22:56:08.678Z,101108.06
2023-04-14T22:58:39.408Z,101117.09
2023-04-14T23:01:19.091Z,101092.44
2023-04-14T23:03:50.161Z,101103.94
2023-04-14T23:06:18.121Z,101114.63
2023-04-14T23:08:44.914Z,101117.44
2023-04-14T23:11:11.835Z,101112.41
2023-04-14T23:13:38.572Z,101114.72
2023-04-14T23:16:06.062Z,101123.09
2023-04-14T23:18:33.119Z,101109.69
2023-04-14T23:20:59.875Z,101130.69
2023-04-14T23:23:27.542Z,101132.66
2023-04-14T23:25:55.920Z,101134.91
2023-04-14T23:28:22.867Z,101133.50
2023-04-14T23:30:49.678Z,101131.84
2023-04-14T23:33:16.506Z,101129.34
2023-04-14T23:35:43.284Z,101127.63
2023-04-14T23:38:10.088Z,101138.03
2023-04-14T23:40:37.437Z,101138.34
2023-04-14T23:43:05.278Z,101112.88
2023-04-14T23:45:37.158Z,101044.91
2023-04-14T23:48:05.436Z,101129.41
2023-04-14T23:50:59.099Z,101123.28
2023-04-14T23:53:20.140Z,101103.41
2023-04-14T23:55:47.836Z,101123.28
2023-04-14T23:58:26.002Z,101130.56
